Time;durP1;ratioP1;P1;durP2;ratioP2;P2;SDS_P1;SDS_P2;PMS_P1;PMS_P2;Temp;Humidity;BMP_temperature;BMP_pressure;BME280_temperature;BME280_humidity;BME280_pressure;Samples;Min_cycle;Max_cycle;Signal;HPM_P1;HPM_P2
2023/11/10 00:02:22;;;;;;;4.88;0.70;;;;;;;11.45;91.21;98905.16;4978371;28;20058;-67
2023/11/10 00:04:51;;;;;;;1.70;0.70;;;;;;;11.38;91.41;98902.53;4988988;28;20027;-67
2023/11/10 00:07:17;;;;;;;0.50;0.50;;;;;;;11.43;92.08;98904.81;4991299;28;20038;-67
2023/11/10 00:09:46;;;;;;;2.33;0.85;;;;;;;11.36;93.16;98890.66;4972709;28;20066;-67
2023/11/10 00:12:17;;;;;;;2.13;1.10;;;;;;;11.38;93.56;98894.44;4990296;28;20046;-68
2023/11/10 00:14:44;;;;;;;1.05;0.70;;;;;;;11.43;93.74;98885.16;4990330;28;20028;-69
2023/11/10 00:17:09;;;;;;;0.77;0.77;;;;;;;11.44;94.26;98884.00;4990002;28;20034;-67
2023/11/10 00:19:41;;;;;;;0.50;0.50;;;;;;;11.46;94.30;98874.34;4989348;28;20612;-67
2023/11/10 00:22:06;;;;;;;0.70;0.50;;;;;;;11.49;94.26;98875.47;4989334;28;20049;-67
2023/11/10 00:24:35;;;;;;;1.25;0.80;;;;;;;11.43;94.16;98871.69;4988755;28;20022;-67
2023/11/10 00:27:01;;;;;;;0.45;0.35;;;;;;;11.28;95.17;98881.13;4987473;28;20034;-67
2023/11/10 00:29:27;;;;;;;1.77;0.65;;;;;;;11.18;95.84;98871.22;4991485;28;20556;-68
2023/11/10 00:31:53;;;;;;;1.10;0.50;;;;;;;11.16;96.64;98865.47;4988714;28;20034;-68
2023/11/10 00:34:18;;;;;;;0.50;0.50;;;;;;;11.18;97.19;98874.69;4990746;28;20394;-67
2023/11/10 00:36:44;;;;;;;0.60;0.60;;;;;;;11.26;96.83;98873.44;4989935;28;20034;-67
2023/11/10 00:39:10;;;;;;;2.25;0.80;;;;;;;11.25;96.46;98874.59;4988073;28;20042;-67
2023/11/10 00:41:35;;;;;;;1.10;0.60;;;;;;;11.11;96.81;98884.78;4987914;28;20062;-68
2023/11/10 00:44:01;;;;;;;0.88;0.43;;;;;;;11.04;97.34;98884.84;4989654;28;20073;-67
2023/11/10 00:46:26;;;;;;;0.77;0.60;;;;;;;11.12;97.90;98892.44;4986996;28;20026;-66
2023/11/10 00:48:52;;;;;;;0.40;0.40;;;;;;;11.04;97.50;98888.28;4974474;28;20038;-67
2023/11/10 00:51:18;;;;;;;1.38;0.80;;;;;;;11.09;97.43;98895.94;4991062;28;20486;-67
2023/11/10 00:53:43;;;;;;;0.50;0.50;;;;;;;11.15;97.40;98897.03;4990048;28;20579;-67
2023/11/10 00:56:09;;;;;;;0.93;0.63;;;;;;;11.25;97.33;98895.38;4987455;28;20034;-67
2023/11/10 00:58:34;;;;;;;0.60;0.60;;;;;;;11.16;96.24;98898.56;4986439;28;20117;-68
2023/11/10 01:01:00;;;;;;;0.63;0.63;;;;;;;11.04;96.29;98895.59;4991199;28;20085;-67
2023/11/10 01:03:26;;;;;;;3.25;0.80;;;;;;;11.05;97.07;98892.53;4985450;28;20177;-68
2023/11/10 01:05:51;;;;;;;0.30;0.30;;;;;;;11.01;96.61;98901.81;4989799;28;20045;-67
2023/11/10 01:08:17;;;;;;;0.40;0.40;;;;;;;11.09;95.61;98897.88;4972670;28;20042;-67
2023/11/10 01:10:42;;;;;;;0.82;0.50;;;;;;;10.97;95.08;98898.38;4988184;28;20038;-67
2023/11/10 01:13:08;;;;;;;0.40;0.40;;;;;;;11.03;94.27;98905.63;4986837;28;20042;-68
2023/11/10 01:15:33;;;;;;;0.50;0.30;;;;;;;10.82;94.49;98906.59;4982228;28;20034;-67
2023/11/10 01:17:59;;;;;;;2.47;0.40;;;;;;;10.93;93.79;98901.13;4986392;28;20042;-67
2023/11/10 01:20:24;;;;;;;0.30;0.30;;;;;;;10.84;94.28;98914.25;4989973;28;20034;-67
2023/11/10 01:22:50;;;;;;;0.40;0.40;;;;;;;10.99;92.15;98912.22;4986231;28;20034;-67
2023/11/10 01:25:15;;;;;;;0.60;0.60;;;;;;;10.97;92.38;98901.84;4989180;28;20040;-67
2023/11/10 01:27:42;;;;;;;0.20;0.20;;;;;;;11.00;91.56;98911.03;4987187;28;20038;-67
2023/11/10 01:30:09;;;;;;;0.63;0.55;;;;;;;11.01;91.18;98905.28;4973679;28;20026;-67
2023/11/10 01:32:34;;;;;;;0.30;0.30;;;;;;;11.01;91.77;98913.34;4989358;28;20061;-67
2023/11/10 01:35:00;;;;;;;0.30;0.30;;;;;;;10.89;92.49;98911.16;4989959;28;20078;-67
2023/11/10 01:37:28;;;;;;;0.22;0.22;;;;;;;10.97;91.81;98906.47;4992801;28;20034;-68
2023/11/10 01:39:54;;;;;;;1.10;0.57;;;;;;;10.99;91.92;98909.53;4994356;28;20045;-67
2023/11/10 01:42:19;;;;;;;0.35;0.30;;;;;;;11.00;92.31;98913.72;4986441;28;20057;-67
2023/11/10 01:44:45;;;;;;;2.22;0.40;;;;;;;11.04;91.44;98919.84;4991676;28;20078;-67
2023/11/10 01:47:10;;;;;;;0.65;0.38;;;;;;;11.07;91.24;98916.38;4993847;28;20061;-67
2023/11/10 01:49:38;;;;;;;0.20;0.20;;;;;;;11.09;91.36;98922.13;4992835;28;20038;-68
2023/11/10 01:52:04;;;;;;;2.55;0.40;;;;;;;11.07;91.93;98919.06;4991897;28;20026;-68
2023/11/10 01:54:34;;;;;;;0.73;0.43;;;;;;;11.04;91.94;98912.53;4989509;28;20026;-67
2023/11/10 01:57:03;;;;;;;1.40;0.32;;;;;;;11.08;92.73;98904.41;4992397;28;20099;-67
2023/11/10 01:59:31;;;;;;;0.40;0.35;;;;;;;11.14;92.07;98903.59;4991957;28;20031;-68
2023/11/10 02:01:56;;;;;;;0.50;0.22;;;;;;;11.08;91.94;98902.50;4990312;28;20034;-67
2023/11/10 02:04:22;;;;;;;0.60;0.20;;;;;;;11.11;91.51;98901.69;4974536;28;20137;-67
2023/11/10 02:06:48;;;;;;;0.35;0.30;;;;;;;11.09;92.13;98900.56;4993963;28;20406;-67
2023/11/10 02:09:15;;;;;;;0.40;0.40;;;;;;;11.02;91.72;98897.94;4994064;28;20038;-67
2023/11/10 02:11:41;;;;;;;1.52;0.45;;;;;;;11.10;91.88;98896.69;4991285;28;20038;-68
2023/11/10 02:14:09;;;;;;;0.50;0.50;;;;;;;11.03;92.12;98897.56;4990193;28;20022;-68
2023/11/10 02:16:36;;;;;;;0.70;0.47;;;;;;;11.03;92.03;98904.88;4990223;28;20041;-68
2023/11/10 02:19:02;;;;;;;1.70;0.47;;;;;;;11.07;91.96;98889.44;4989257;28;20060;-68
2023/11/10 02:21:28;;;;;;;0.38;0.38;;;;;;;11.04;92.52;98891.00;4993254;28;20042;-67
2023/11/10 02:24:00;;;;;;;1.75;0.40;;;;;;;11.00;92.90;98890.25;4974670;28;20049;-67
2023/11/10 02:26:25;;;;;;;0.50;0.50;;;;;;;11.04;92.66;98906.38;4991118;28;20038;-68
2023/11/10 02:28:51;;;;;;;0.93;0.43;;;;;;;11.04;92.98;98896.38;4990027;28;20037;-68
2023/11/10 02:31:17;;;;;;;0.55;0.55;;;;;;;11.04;93.00;98891.00;4993260;28;20041;-68
2023/11/10 02:33:42;;;;;;;0.63;0.60;;;;;;;10.94;92.80;98891.84;4991766;28;20291;-68
2023/11/10 02:36:09;;;;;;;0.88;0.70;;;;;;;10.88;93.79;98894.22;4990035;28;20097;-68
2023/11/10 02:38:38;;;;;;;0.60;0.50;;;;;;;10.95;93.59;98893.41;4991986;28;20026;-68
2023/11/10 02:41:05;;;;;;;0.40;0.40;;;;;;;11.03;93.31;98894.09;4987917;28;20026;-68
2023/11/10 02:43:32;;;;;;;0.73;0.70;;;;;;;10.93;93.07;98892.25;4989023;28;20034;-65
2023/11/10 02:45:57;;;;;;;1.30;1.00;;;;;;;10.82;94.22;98893.13;4975112;28;20464;-65
2023/11/10 02:48:23;;;;;;;0.50;0.50;;;;;;;10.95;93.32;98887.25;4992958;28;20019;-69
2023/11/10 02:50:49;;;;;;;0.88;0.70;;;;;;;10.98;93.18;98897.97;4993024;28;20406;-68
2023/11/10 02:53:15;;;;;;;0.73;0.68;;;;;;;10.97;93.05;98896.47;4990009;28;20029;-68
2023/11/10 02:55:40;;;;;;;0.50;0.50;;;;;;;10.96;92.90;98894.91;4992566;28;20069;-65
2023/11/10 02:58:06;;;;;;;0.50;0.50;;;;;;;10.96;92.92;98896.84;4991875;28;20042;-68
2023/11/10 03:00:32;;;;;;;1.45;0.75;;;;;;;10.95;92.60;98900.72;4991126;28;20118;-66
2023/11/10 03:02:57;;;;;;;2.30;0.52;;;;;;;10.67;93.56;98910.59;4988613;28;20481;-66
2023/11/10 03:05:23;;;;;;;0.63;0.63;;;;;;;10.79;93.80;98895.84;4995679;28;20030;-66
2023/11/10 03:07:49;;;;;;;2.58;1.33;;;;;;;10.93;93.52;98895.72;4996277;28;20535;-66
2023/11/10 03:10:16;;;;;;;0.40;0.40;;;;;;;10.91;93.36;98895.38;4996311;28;20061;-66
2023/11/10 03:12:42;;;;;;;2.80;0.55;;;;;;;10.87;93.76;98900.03;4991315;28;20057;-67
2023/11/10 03:15:09;;;;;;;0.68;0.60;;;;;;;10.98;93.43;98889.13;4982544;28;20476;-67
2023/11/10 03:17:34;;;;;;;0.55;0.50;;;;;;;11.00;92.91;98889.50;4972036;28;20031;-68
2023/11/10 03:20:00;;;;;;;1.00;0.70;;;;;;;10.99;93.25;98891.44;4990442;28;20497;-67
2023/11/10 03:22:26;;;;;;;0.98;0.80;;;;;;;10.94;93.75;98891.13;4988500;28;20074;-67
2023/11/10 03:24:51;;;;;;;0.63;0.63;;;;;;;11.03;93.42;98894.09;4990364;28;20042;-67
2023/11/10 03:27:17;;;;;;;1.20;0.80;;;;;;;11.05;92.87;98889.84;4990792;28;20482;-67
2023/11/10 03:29:43;;;;;;;1.20;0.90;;;;;;;11.09;92.98;98893.22;4992020;28;20092;-67
2023/11/10 03:32:09;;;;;;;1.08;0.88;;;;;;;11.07;92.47;98894.81;4972058;28;20502;-67
2023/11/10 03:34:42;;;;;;;1.95;1.15;;;;;;;11.14;91.88;98890.13;4987409;28;20064;-67
2023/11/10 03:37:09;;;;;;;1.50;1.23;;;;;;;11.12;92.55;98894.38;4986221;28;20121;-67
2023/11/10 03:39:41;;;;;;;1.60;1.40;;;;;;;11.16;91.72;98887.00;4986382;28;20025;-67
2023/11/10 03:42:07;;;;;;;1.23;0.90;;;;;;;11.08;92.04;98888.25;5003033;28;20871;-67
2023/11/10 03:44:34;;;;;;;1.80;1.25;;;;;;;11.00;91.46;98878.72;4985880;28;20026;-66
2023/11/10 03:47:00;;;;;;;1.65;1.20;;;;;;;10.99;92.61;98887.97;4988580;28;20383;-67
2023/11/10 03:49:26;;;;;;;1.95;1.17;;;;;;;10.87;93.11;98884.63;4989808;28;20030;-66
2023/11/10 03:51:52;;;;;;;1.85;1.40;;;;;;;10.92;92.76;98875.34;4987145;28;20076;-67
2023/11/10 03:54:18;;;;;;;1.10;0.95;;;;;;;10.83;92.72;98877.75;4990079;28;20038;-67
2023/11/10 03:56:44;;;;;;;2.35;1.52;;;;;;;11.00;92.55;98874.09;4991937;28;20093;-67
2023/11/10 03:59:11;;;;;;;3.33;2.05;;;;;;;10.97;91.34;98874.91;4988766;28;20045;-68
2023/11/10 04:01:37;;;;;;;2.22;1.42;;;;;;;10.69;93.52;98867.88;4984499;28;20037;-67
2023/11/10 04:04:03;;;;;;;2.85;1.75;;;;;;;10.74;93.02;98883.59;4986496;28;20096;-66
2023/11/10 04:06:30;;;;;;;1.52;1.30;;;;;;;10.93;92.72;98879.56;4972487;28;20104;-67
2023/11/10 04:08:55;;;;;;;2.85;1.80;;;;;;;10.99;91.67;98882.59;4974376;28;20022;-67
2023/11/10 04:11:21;;;;;;;3.65;1.67;;;;;;;11.04;91.27;98877.53;4985087;28;20034;-67
2023/11/10 04:13:47;;;;;;;2.05;1.70;;;;;;;11.06;91.36;98879.81;4990708;28;20046;-66
2023/11/10 04:16:20;;;;;;;1.40;1.30;;;;;;;11.09;91.35;98879.03;4973269;28;20112;-67
2023/11/10 04:18:48;;;;;;;2.65;1.63;;;;;;;11.06;91.19;98882.50;4989828;28;20030;-67
2023/11/10 04:21:14;;;;;;;1.77;1.27;;;;;;;11.08;90.81;98883.63;4983814;28;20019;-67
2023/11/10 04:23:41;;;;;;;3.70;1.75;;;;;;;11.01;90.20;98875.66;4988498;28;20038;-67
2023/11/10 04:26:07;;;;;;;1.75;1.42;;;;;;;10.96;91.14;98881.44;4990024;28;20038;-67
2023/11/10 04:28:36;;;;;;;2.72;1.65;;;;;;;10.92;90.99;98888.06;4989558;28;20041;-67
2023/11/10 04:31:02;;;;;;;1.65;1.25;;;;;;;10.86;89.93;98879.63;4989761;28;20390;-67
2023/11/10 04:33:27;;;;;;;1.98;1.30;;;;;;;10.80;90.73;98884.69;4989294;28;20026;-67
2023/11/10 04:35:54;;;;;;;2.92;1.70;;;;;;;10.71;90.57;98887.09;4990749;28;20069;-67
2023/11/10 04:38:20;;;;;;;1.33;1.23;;;;;;;10.65;91.51;98880.59;4988791;28;20689;-68
2023/11/10 04:40:45;;;;;;;2.83;2.00;;;;;;;10.58;91.47;98877.97;4973477;28;20034;-67
2023/11/10 04:43:11;;;;;;;1.42;1.25;;;;;;;10.56;91.34;98877.63;4989662;28;20081;-67
2023/11/10 04:45:36;;;;;;;2.90;1.45;;;;;;;10.58;91.38;98879.91;4985308;28;20038;-67
2023/11/10 04:48:02;;;;;;;3.17;1.65;;;;;;;10.66;91.22;98882.16;4990095;28;20026;-67
2023/11/10 04:50:27;;;;;;;1.92;1.23;;;;;;;10.65;90.84;98882.53;4987811;28;20073;-67
2023/11/10 04:52:53;;;;;;;1.45;1.10;;;;;;;10.66;90.69;98884.84;4987785;28;20133;-66
2023/11/10 04:55:19;;;;;;;1.63;1.15;;;;;;;10.58;91.25;98877.97;4990232;28;20030;-67
2023/11/10 04:57:45;;;;;;;1.92;1.38;;;;;;;10.65;91.38;98877.13;4991182;28;20080;-67
2023/11/10 05:00:11;;;;;;;1.42;1.13;;;;;;;10.74;90.66;98888.97;4985085;28;20136;-67
2023/11/10 05:02:37;;;;;;;1.77;1.08;;;;;;;10.73;89.19;98886.69;4983141;28;20104;-67
2023/11/10 05:05:03;;;;;;;6.47;1.40;;;;;;;10.77;89.81;98888.19;4972715;28;20117;-67
2023/11/10 05:07:28;;;;;;;4.68;1.30;;;;;;;10.66;89.72;98882.16;4992695;28;20498;-67
2023/11/10 05:09:54;;;;;;;1.83;1.30;;;;;;;10.68;89.78;98879.06;4994613;28;20042;-67
2023/11/10 05:12:20;;;;;;;2.38;1.30;;;;;;;10.56;90.09;98883.00;4992800;28;20041;-67
2023/11/10 05:14:46;;;;;;;1.70;1.27;;;;;;;10.69;90.18;98889.41;4993146;28;20034;-67
2023/11/10 05:17:11;;;;;;;6.05;1.20;;;;;;;10.69;90.03;98886.72;4989239;28;20031;-68
2023/11/10 05:19:37;;;;;;;1.30;1.20;;;;;;;10.76;89.69;98883.22;4973017;28;20034;-67
2023/11/10 05:22:03;;;;;;;1.38;1.20;;;;;;;10.77;89.40;98885.50;4981119;28;20483;-67
2023/11/10 05:24:29;;;;;;;1.45;0.85;;;;;;;10.72;89.59;98885.91;4982666;28;20026;-66
2023/11/10 05:26:56;;;;;;;1.80;1.23;;;;;;;10.74;89.50;98894.34;4990458;28;20506;-66
2023/11/10 05:29:22;;;;;;;5.20;1.23;;;;;;;10.76;89.44;98886.63;4992741;28;20026;-66
2023/11/10 05:31:48;;;;;;;1.33;1.20;;;;;;;10.81;89.46;98891.63;4995826;28;20053;-65
2023/11/10 05:34:16;;;;;;;1.50;1.27;;;;;;;10.86;89.38;98893.84;4991040;28;20112;-66
2023/11/10 05:36:41;;;;;;;3.88;1.30;;;;;;;10.77;88.64;98898.97;4993219;28;20022;-65
2023/11/10 05:39:07;;;;;;;0.85;0.77;;;;;;;10.80;89.34;98892.75;4992156;28;20155;-67
2023/11/10 05:41:34;;;;;;;1.52;1.10;;;;;;;10.80;90.16;98892.03;4994379;28;20038;-65
2023/11/10 05:44:00;;;;;;;3.10;1.05;;;;;;;10.78;89.58;98899.72;4992628;28;20030;-66
2023/11/10 05:46:25;;;;;;;0.70;0.70;;;;;;;10.82;89.29;98901.19;4990266;28;20044;-66
2023/11/10 05:48:50;;;;;;;4.05;1.17;;;;;;;10.87;89.84;98902.72;4994187;28;20038;-66
2023/11/10 05:51:16;;;;;;;1.20;1.10;;;;;;;10.84;89.06;98904.25;4991654;28;20133;-65
2023/11/10 05:53:41;;;;;;;1.35;0.90;;;;;;;10.87;88.87;98908.09;4992672;28;20414;-67
2023/11/10 05:56:07;;;;;;;1.40;0.88;;;;;;;10.80;89.16;98906.22;4988537;28;20038;-66
2023/11/10 05:58:33;;;;;;;1.02;0.82;;;;;;;10.84;88.69;98914.25;4989099;28;20465;-66
2023/11/10 06:00:59;;;;;;;1.00;0.93;;;;;;;10.92;88.09;98902.25;4986442;28;20037;-66
2023/11/10 06:03:27;;;;;;;1.45;0.88;;;;;;;10.91;88.36;98908.81;4989918;28;20091;-67
2023/11/10 06:05:56;;;;;;;2.10;1.10;;;;;;;10.88;88.80;98906.91;4984023;28;20062;-67
2023/11/10 06:08:24;;;;;;;0.75;0.65;;;;;;;10.90;88.51;98905.38;4982895;28;20030;-66
2023/11/10 06:10:52;;;;;;;1.17;1.08;;;;;;;10.85;88.72;98916.56;4984867;28;20037;-66
2023/11/10 06:13:24;;;;;;;1.02;0.93;;;;;;;10.98;88.39;98911.44;4985527;28;20029;-66
2023/11/10 06:15:50;;;;;;;0.80;0.80;;;;;;;10.75;89.08;98911.28;4979911;28;20044;-67
2023/11/10 06:18:15;;;;;;;0.57;0.50;;;;;;;10.85;88.00;98913.88;4982880;28;20042;-67
2023/11/10 06:20:40;;;;;;;1.05;0.95;;;;;;;10.92;87.74;98915.00;4990387;28;20113;-66
2023/11/10 06:23:06;;;;;;;1.23;1.02;;;;;;;10.91;88.00;98914.22;4989789;28;20105;-67
2023/11/10 06:25:32;;;;;;;1.30;0.68;;;;;;;10.89;88.02;98922.69;4981537;28;20030;-66
2023/11/10 06:27:57;;;;;;;1.10;0.93;;;;;;;10.93;88.07;98916.50;4973332;28;20027;-67
2023/11/10 06:30:23;;;;;;;1.13;0.85;;;;;;;10.96;87.09;98915.69;4993464;28;20037;-66
2023/11/10 06:32:48;;;;;;;0.77;0.70;;;;;;;10.94;87.54;98921.47;4988860;28;20030;-67
2023/11/10 06:35:14;;;;;;;0.95;0.63;;;;;;;10.92;88.00;98923.06;4987825;28;20054;-66
2023/11/10 06:37:40;;;;;;;0.50;0.50;;;;;;;10.84;88.09;98909.66;4988894;28;20109;-66
2023/11/10 06:40:06;;;;;;;0.60;0.60;;;;;;;10.88;88.06;98921.16;4994288;28;20540;-68
2023/11/10 06:42:35;;;;;;;0.90;0.73;;;;;;;10.88;87.54;98915.78;4986074;28;20394;-67
2023/11/10 06:45:02;;;;;;;0.60;0.60;;;;;;;10.90;87.19;98915.38;4978669;28;20031;-67
2023/11/10 06:47:28;;;;;;;2.28;0.80;;;;;;;10.94;87.31;98929.56;4987902;28;20070;-67
2023/11/10 06:49:55;;;;;;;1.00;0.93;;;;;;;10.91;87.75;98927.69;4981624;28;20038;-65
2023/11/10 06:52:22;;;;;;;0.60;0.55;;;;;;;10.93;87.39;98936.13;4982072;28;20483;-66
2023/11/10 06:54:48;;;;;;;1.20;0.60;;;;;;;11.01;87.21;98928.75;4989686;28;20574;-65
2023/11/10 06:57:13;;;;;;;1.48;0.90;;;;;;;11.00;87.52;98929.88;4990288;28;20093;-65
2023/11/10 06:59:39;;;;;;;1.08;0.80;;;;;;;11.03;87.18;98932.56;4980848;28;20076;-66
2023/11/10 07:02:09;;;;;;;0.65;0.63;;;;;;;11.02;87.82;98927.56;4975025;28;20057;-67
2023/11/10 07:04:35;;;;;;;1.13;0.75;;;;;;;10.96;87.80;98926.47;4986959;28;20048;-65
2023/11/10 07:07:00;;;;;;;1.08;0.75;;;;;;;10.96;87.46;98921.84;4986851;28;20042;-66
2023/11/10 07:09:26;;;;;;;0.40;0.40;;;;;;;10.87;87.83;98925.03;4985145;28;20153;-66
2023/11/10 07:28:20;;;;;;;0.40;0.40;;;;;;;10.81;87.89;98932.00;5120489;27;21139;-73
2023/11/10 07:30:46;;;;;;;0.80;0.80;;;;;;;10.86;87.29;98928.88;5130179;27;20137;-72
2023/11/10 07:33:11;;;;;;;0.70;0.60;;;;;;;10.70;87.54;98935.94;5118091;28;20019;-72
2023/11/10 07:35:37;;;;;;;0.52;0.52;;;;;;;10.71;87.22;98943.63;5118411;28;20035;-72
2023/11/10 07:38:04;;;;;;;1.98;0.65;;;;;;;10.71;87.30;98938.25;5100415;28;20047;-72
2023/11/10 07:40:29;;;;;;;0.30;0.30;;;;;;;10.58;86.71;98933.72;5119987;28;20019;-72
2023/11/10 07:42:55;;;;;;;2.67;0.70;;;;;;;10.45;87.97;98940.75;5119896;27;20050;-73
2023/11/10 07:45:21;;;;;;;0.50;0.50;;;;;;;10.52;87.15;98946.06;5120983;27;20612;-72
2023/11/10 07:47:50;;;;;;;3.40;1.05;;;;;;;10.35;87.92;98953.13;5120406;27;20035;-72
2023/11/10 07:50:18;;;;;;;1.45;0.82;;;;;;;10.30;88.14;98944.72;5123722;28;20114;-72
2023/11/10 07:52:48;;;;;;;1.58;0.95;;;;;;;10.16;89.22;98940.19;5120663;28;20027;-72
2023/11/10 07:55:16;;;;;;;0.38;0.38;;;;;;;10.34;88.41;98946.19;5119240;28;20047;-72
2023/11/10 07:57:42;;;;;;;0.70;0.57;;;;;;;10.24;89.09;98941.66;5118315;28;20024;-72
2023/11/10 08:00:21;;;;;;;0.47;0.47;;;;;;;10.22;89.58;98949.34;5117765;27;20035;-72
2023/11/10 08:02:51;;;;;;;0.60;0.60;;;;;;;10.41;88.53;98945.41;5114439;28;20069;-72
2023/11/10 08:05:17;;;;;;;0.68;0.45;;;;;;;10.44;87.79;98956.13;5118223;28;20081;-72
2023/11/10 08:07:43;;;;;;;0.80;0.80;;;;;;;10.58;87.86;98960.66;5114087;27;20019;-72
2023/11/10 08:10:09;;;;;;;0.50;0.50;;;;;;;10.66;87.26;98944.06;5122354;28;20556;-72
2023/11/10 08:15:05;;;;;;;0.50;0.50;;;;;;;10.57;87.12;98957.19;5031041;28;20140;-71
2023/11/10 08:17:31;;;;;;;0.40;0.40;;;;;;;10.50;88.08;98946.47;5031122;28;20097;-72
2023/11/10 08:19:56;;;;;;;0.70;0.70;;;;;;;10.46;88.02;98948.44;5041095;28;20053;-71
2023/11/10 08:22:22;;;;;;;0.40;0.40;;;;;;;10.57;87.82;98945.66;5043102;28;20044;-73
2023/11/10 08:24:48;;;;;;;0.55;0.43;;;;;;;10.69;87.38;98940.56;5042124;28;20128;-72
2023/11/10 08:27:14;;;;;;;0.50;0.50;;;;;;;10.73;86.88;98946.69;5039055;28;20076;-72
2023/11/10 08:29:39;;;;;;;0.60;0.50;;;;;;;10.87;87.09;98949.25;5024036;28;20025;-72
2023/11/10 08:32:10;;;;;;;0.40;0.40;;;;;;;10.96;87.62;98942.63;5030730;28;20076;-72
2023/11/10 08:34:36;;;;;;;0.77;0.52;;;;;;;11.08;86.32;98953.69;5032447;28;20041;-72
2023/11/10 08:37:02;;;;;;;2.05;0.50;;;;;;;11.06;85.32;98956.00;5027504;28;20025;-72
2023/11/10 08:39:28;;;;;;;1.52;0.60;;;;;;;11.08;85.88;98950.22;5025174;28;20106;-72
2023/11/10 08:41:54;;;;;;;1.15;0.55;;;;;;;10.99;86.24;98947.22;5031824;28;20487;-71
2023/11/10 08:44:21;;;;;;;0.43;0.43;;;;;;;11.07;85.36;98954.81;5029138;28;20021;-71
2023/11/10 08:46:47;;;;;;;1.17;0.85;;;;;;;10.89;85.46;98955.00;5010302;28;20099;-71
2023/11/10 08:49:13;;;;;;;1.50;0.57;;;;;;;10.91;85.67;98946.53;5026800;28;20042;-71
2023/11/10 08:51:40;;;;;;;1.95;0.65;;;;;;;10.79;86.76;98947.78;5047029;28;20057;-71
2023/11/10 08:54:06;;;;;;;1.33;0.55;;;;;;;10.90;86.68;98953.84;5026891;28;20033;-71
2023/11/10 08:56:32;;;;;;;0.40;0.40;;;;;;;10.95;86.08;98959.97;5028951;28;20026;-71
2023/11/10 08:58:58;;;;;;;0.30;0.30;;;;;;;10.97;86.02;98961.09;5029030;28;20443;-71
2023/11/10 09:01:26;;;;;;;0.40;0.40;;;;;;;11.02;85.63;98957.97;5026768;28;20045;-71
2023/11/10 09:03:51;;;;;;;0.70;0.43;;;;;;;11.07;85.53;98970.25;5029767;28;20514;-71
2023/11/10 09:06:16;;;;;;;0.40;0.40;;;;;;;11.08;86.28;98967.16;5024226;28;20030;-72
2023/11/10 09:08:42;;;;;;;0.38;0.38;;;;;;;11.00;85.81;98959.50;5037055;28;20504;-71
2023/11/10 09:11:07;;;;;;;0.40;0.40;;;;;;;11.11;86.19;98968.28;5021737;28;20059;-71
2023/11/10 09:13:33;;;;;;;1.23;0.35;;;;;;;11.13;85.99;98984.81;5018555;28;20036;-71
2023/11/10 09:15:59;;;;;;;0.30;0.30;;;;;;;11.20;84.88;98974.72;5026196;28;20446;-71
2023/11/10 09:18:25;;;;;;;0.30;0.30;;;;;;;11.21;85.23;98976.25;5027375;28;20608;-71
2023/11/10 09:20:51;;;;;;;0.57;0.50;;;;;;;11.13;86.19;98979.44;5022036;28;20036;-73
2023/11/10 09:23:16;;;;;;;0.40;0.40;;;;;;;11.29;85.26;98971.56;5024493;28;20140;-72
2023/11/10 09:25:42;;;;;;;0.40;0.40;;;;;;;11.25;85.10;98976.22;5024003;28;20037;-71
2023/11/10 09:28:08;;;;;;;0.30;0.30;;;;;;;11.26;85.40;98977.75;5029084;28;20099;-71
2023/11/10 09:30:34;;;;;;;3.80;1.02;;;;;;;11.30;85.38;98971.19;5022487;28;20029;-71
2023/11/10 09:33:00;;;;;;;0.40;0.40;;;;;;;11.36;85.41;98972.25;5027244;28;20051;-71
2023/11/10 09:35:26;;;;;;;0.52;0.40;;;;;;;11.46;84.73;98976.75;5026434;28;20030;-73
2023/11/10 09:37:52;;;;;;;0.95;0.50;;;;;;;11.48;85.13;98970.97;5016420;28;20037;-71
2023/11/10 09:40:21;;;;;;;0.50;0.50;;;;;;;11.53;84.92;98973.22;5026603;28;20108;-71
2023/11/10 09:42:47;;;;;;;0.73;0.70;;;;;;;11.49;84.63;98983.28;5026318;28;20044;-71
2023/11/10 09:45:15;;;;;;;0.60;0.55;;;;;;;11.50;84.93;98982.88;5024783;28;20092;-71
2023/11/10 09:47:40;;;;;;;0.93;0.70;;;;;;;11.42;85.16;98984.13;5023657;28;20030;-71
2023/11/10 09:50:08;;;;;;;0.70;0.50;;;;;;;11.47;84.48;98989.09;5022691;28;20048;-71
2023/11/10 09:52:36;;;;;;;0.88;0.57;;;;;;;11.39;85.25;98997.63;5023807;28;20120;-73
2023/11/10 09:55:02;;;;;;;6.25;2.53;;;;;;;11.45;85.39;98982.56;5025191;28;20042;-73
2023/11/10 09:57:28;;;;;;;10.75;5.53;;;;;;;11.53;84.89;98984.78;5029336;28;20029;-72
2023/11/10 09:59:56;;;;;;;12.27;5.53;;;;;;;11.57;85.47;98982.03;5025895;28;20030;-71
2023/11/10 10:02:21;;;;;;;1.05;0.88;;;;;;;11.61;84.22;98985.47;5025468;28;20029;-72
2023/11/10 10:04:47;;;;;;;2.85;0.63;;;;;;;11.63;84.38;98989.28;5024787;28;20531;-72
2023/11/10 10:07:14;;;;;;;0.40;0.40;;;;;;;11.57;84.86;98985.50;5026045;28;20083;-72
2023/11/10 10:09:40;;;;;;;0.88;0.70;;;;;;;11.73;84.72;98985.72;5026647;28;20048;-73
2023/11/10 10:12:08;;;;;;;0.55;0.50;;;;;;;11.88;84.28;98985.56;5024986;28;20037;-72
2023/11/10 10:14:34;;;;;;;0.80;0.45;;;;;;;11.96;84.34;98984.31;5022432;28;20030;-71
2023/11/10 10:16:59;;;;;;;1.27;0.65;;;;;;;11.97;83.66;98993.91;5018034;28;20041;-72
2023/11/10 10:19:32;;;;;;;1.27;0.40;;;;;;;11.97;82.39;98993.91;5028873;28;20029;-72
2023/11/10 10:21:59;;;;;;;1.15;0.82;;;;;;;12.05;83.31;99001.53;5029910;28;20025;-72
2023/11/10 10:24:25;;;;;;;0.85;0.50;;;;;;;11.95;83.58;98990.88;5030632;28;20022;-72
2023/11/10 10:26:51;;;;;;;1.20;0.73;;;;;;;11.97;84.83;98988.53;5029747;28;20034;-72
2023/11/10 10:29:18;;;;;;;0.47;0.47;;;;;;;11.95;83.92;98996.25;5028281;28;20408;-72
2023/11/10 10:31:47;;;;;;;1.00;0.73;;;;;;;11.88;84.89;98989.03;5026513;28;20017;-72
2023/11/10 10:34:15;;;;;;;0.98;0.63;;;;;;;11.86;85.60;98991.38;5028603;28;20033;-72
2023/11/10 10:36:44;;;;;;;2.55;0.90;;;;;;;11.94;85.68;98989.34;5023217;28;20052;-71
2023/11/10 10:39:15;;;;;;;0.80;0.80;;;;;;;11.99;85.68;98997.75;5028148;28;20037;-72
2023/11/10 10:41:42;;;;;;;0.80;0.70;;;;;;;12.03;85.34;98997.69;5015973;28;20496;-72
2023/11/10 10:44:08;;;;;;;0.85;0.85;;;;;;;11.97;85.72;98988.53;5028939;28;20037;-72
2023/11/10 10:46:35;;;;;;;1.20;0.55;;;;;;;11.87;85.18;98990.19;5026237;28;20073;-72
2023/11/10 10:49:12;;;;;;;0.90;0.90;;;;;;;11.91;85.72;98984.75;5013231;28;20082;-71
2023/11/10 10:51:37;;;;;;;2.15;0.68;;;;;;;11.79;85.97;98989.50;5026185;28;20029;-72
2023/11/10 10:54:08;;;;;;;1.88;0.80;;;;;;;11.79;86.34;98983.34;5024190;28;20553;-72
2023/11/10 10:56:37;;;;;;;0.50;0.45;;;;;;;11.76;86.44;98987.63;5026738;28;20170;-72
2023/11/10 10:59:04;;;;;;;0.77;0.70;;;;;;;11.79;86.35;98977.94;5024835;28;20039;-72
2023/11/10 11:01:29;;;;;;;0.65;0.65;;;;;;;11.69;87.68;98989.66;5017211;28;20021;-71
2023/11/10 11:04:16;;;;;;;0.63;0.63;;;;;;;11.73;87.32;98993.03;5021391;28;20044;-72
2023/11/10 11:06:52;;;;;;;1.35;0.93;;;;;;;11.72;87.38;98989.59;5025802;28;20612;-72
2023/11/10 11:09:36;;;;;;;2.92;0.85;;;;;;;11.81;86.45;98991.81;5011595;28;20048;-73
2023/11/10 11:12:22;;;;;;;2.30;0.90;;;;;;;11.82;86.93;98985.25;5026564;28;20033;-72
2023/11/10 11:15:24;;;;;;;0.98;0.90;;;;;;;11.86;86.67;98994.06;5024489;28;20048;-72
2023/11/10 11:18:05;;;;;;;0.63;0.63;;;;;;;11.76;85.98;98993.03;5024928;28;20519;-72
2023/11/10 11:20:34;;;;;;;1.20;0.90;;;;;;;11.88;85.13;98991.72;5027742;28;20079;-72
2023/11/10 11:23:01;;;;;;;0.85;0.82;;;;;;;11.75;85.57;98993.41;5029919;28;20088;-72
2023/11/10 11:25:26;;;;;;;0.80;0.80;;;;;;;11.80;85.83;98987.59;5029558;28;20144;-72
2023/11/10 11:27:59;;;;;;;0.75;0.75;;;;;;;11.93;85.62;98993.97;5023025;28;20037;-72
2023/11/10 11:30:40;;;;;;;1.27;0.88;;;;;;;11.95;85.29;98988.94;5023118;28;20484;-73
2023/11/10 11:33:12;;;;;;;0.93;0.75;;;;;;;12.04;84.49;98991.91;5025106;28;20112;-72
2023/11/10 11:35:48;;;;;;;0.88;0.73;;;;;;;12.03;85.12;98992.31;5028732;28;20033;-72
2023/11/10 11:38:32;;;;;;;2.67;0.90;;;;;;;12.14;84.65;98992.94;5024509;28;20041;-72
2023/11/10 11:40:57;;;;;;;0.80;0.70;;;;;;;12.08;83.54;98998.00;5025183;28;20049;-72
2023/11/10 11:43:26;;;;;;;2.63;0.75;;;;;;;12.03;84.27;98984.97;5027975;28;20026;-72
2023/11/10 11:45:56;;;;;;;0.77;0.77;;;;;;;12.03;84.71;98993.06;5024371;28;20030;-72
2023/11/10 11:48:22;;;;;;;3.33;1.48;;;;;;;12.09;84.51;98996.84;5011267;28;20044;-72
2023/11/10 11:50:55;;;;;;;5.50;0.90;;;;;;;12.08;84.44;98981.81;5027348;28;20041;-72
2023/11/10 11:53:25;;;;;;;2.15;1.08;;;;;;;12.10;84.70;98992.97;5027427;28;20029;-72